createdAt,value
2019-05-03T00:01:34.516Z,3.80
2019-05-03T00:04:02.592Z,4.40
2019-05-03T00:06:29.521Z,4.03
2019-05-03T00:08:57.451Z,4.08
2019-05-03T00:11:24.031Z,4.20
2019-05-03T00:13:52.553Z,4.22
2019-05-03T00:16:33.097Z,4.22
2019-05-03T00:19:01.556Z,4.60
2019-05-03T00:21:30.073Z,4.05
2019-05-03T00:23:56.722Z,4.20
2019-05-03T00:26:23.315Z,4.40
2019-05-03T00:28:52.043Z,4.50
2019-05-03T00:31:22.634Z,4.62
2019-05-03T00:33:51.751Z,4.00
2019-05-03T00:36:22.833Z,4.55
2019-05-03T00:38:52.468Z,4.70
2019-05-03T00:41:19.315Z,4.37
2019-05-03T00:43:49.103Z,5.00
2019-05-03T00:46:15.739Z,5.28
2019-05-03T00:48:43.015Z,4.55
2019-05-03T00:51:11.782Z,4.83
2019-05-03T00:53:38.494Z,5.20
2019-05-03T00:56:05.112Z,5.05
2019-05-03T00:58:33.570Z,5.00
2019-05-03T01:01:02.469Z,5.22
2019-05-03T01:03:29.405Z,5.08
2019-05-03T01:05:57.870Z,5.10
2019-05-03T01:08:24.523Z,5.83
2019-05-03T01:10:51.738Z,5.72
2019-05-03T01:13:18.622Z,5.10
2019-05-03T01:15:47.240Z,5.33
2019-05-03T01:18:15.659Z,5.30
2019-05-03T01:20:44.091Z,5.60
2019-05-03T01:23:12.436Z,5.33
2019-05-03T01:25:39.281Z,5.97
2019-05-03T01:28:05.909Z,5.55
2019-05-03T01:30:35.296Z,5.53
2019-05-03T01:33:02.817Z,5.85
2019-05-03T01:35:32.267Z,5.80
2019-05-03T01:37:59.108Z,6.05
2019-05-03T01:40:25.626Z,6.45
2019-05-03T01:42:54.990Z,6.53
2019-05-03T01:45:22.796Z,6.92
2019-05-03T01:47:52.600Z,6.55
2019-05-03T01:50:27.142Z,6.42
2019-05-03T01:52:55.593Z,6.85
2019-05-03T01:55:23.987Z,6.05
2019-05-03T01:57:52.402Z,6.92
2019-05-03T02:00:24.730Z,6.83
2019-05-03T02:02:53.197Z,6.87
2019-05-03T02:05:24.676Z,6.90
2019-05-03T02:07:51.964Z,5.87
2019-05-03T02:10:18.772Z,6.70
2019-05-03T02:12:45.461Z,6.85
2019-05-03T02:15:12.084Z,6.83
2019-05-03T02:17:38.689Z,6.53
2019-05-03T02:20:05.659Z,6.58
2019-05-03T02:22:33.358Z,6.60
2019-05-03T02:25:01.760Z,6.85
2019-05-03T02:27:29.029Z,6.67
2019-05-03T02:29:57.450Z,7.15
2019-05-03T02:32:24.089Z,6.25
2019-05-03T02:34:53.520Z,6.80
2019-05-03T02:37:22.499Z,6.62
2019-05-03T02:39:53.216Z,6.60
2019-05-03T02:42:19.972Z,6.35
2019-05-03T02:44:47.623Z,7.53
2019-05-03T02:47:16.481Z,6.40
2019-05-03T02:49:45.618Z,6.70
2019-05-03T02:52:15.150Z,6.83
2019-05-03T02:54:42.886Z,6.62
2019-05-03T02:57:09.808Z,6.87
2019-05-03T02:59:36.444Z,5.90
2019-05-03T03:02:06.124Z,6.85
2019-05-03T03:04:35.141Z,6.50
2019-05-03T03:07:01.557Z,6.65
2019-05-03T03:09:29.042Z,6.83
2019-05-03T03:11:57.552Z,7.20
2019-05-03T03:14:27.464Z,7.22
2019-05-03T03:16:58.853Z,7.60
2019-05-03T03:19:26.915Z,7.15
2019-05-03T03:21:56.474Z,7.42
2019-05-03T03:24:26.379Z,7.35
2019-05-03T03:26:56.747Z,6.87
2019-05-03T03:29:26.991Z,7.00
2019-05-03T03:32:00.080Z,6.60
2019-05-03T03:34:38.545Z,6.08
2019-05-03T03:37:09.363Z,5.95
2019-05-03T03:39:33.020Z,6.30
2019-05-03T03:41:59.970Z,6.30
2019-05-03T03:44:26.989Z,5.95
2019-05-03T03:46:57.883Z,6.15
2019-05-03T03:49:26.725Z,6.45
2019-05-03T03:51:56.129Z,5.92
2019-05-03T03:54:26.259Z,5.80
2019-05-03T03:57:02.954Z,4.95
2019-05-03T03:59:26.633Z,5.17
2019-05-03T04:01:55.083Z,5.42
2019-05-03T04:04:25.902Z,5.67
2019-05-03T04:06:52.405Z,5.90
2019-05-03T04:09:19.493Z,5.47
2019-05-03T04:11:46.370Z,5.62
2019-05-03T04:14:16.175Z,6.28
2019-05-03T04:16:51.922Z,6.08
2019-05-03T04:19:25.095Z,6.25
2019-05-03T04:21:51.992Z,6.17
2019-05-03T04:24:18.870Z,6.03
2019-05-03T04:26:45.766Z,5.95
2019-05-03T04:29:15.858Z,6.10
2019-05-03T04:31:45.756Z,6.25
2019-05-03T04:34:15.990Z,5.80
2019-05-03T04:36:42.023Z,5.62
2019-05-03T04:39:10.943Z,5.83
2019-05-03T04:41:37.903Z,5.70
2019-05-03T04:44:06.333Z,5.60
2019-05-03T04:46:35.666Z,5.70
2019-05-03T04:49:01.700Z,5.60
2019-05-03T04:51:28.333Z,5.62
2019-05-03T04:53:56.778Z,5.90
2019-05-03T04:56:26.032Z,5.78
2019-05-03T04:58:52.011Z,5.90
2019-05-03T05:01:18.678Z,6.20
2019-05-03T05:03:45.801Z,6.03
2019-05-03T05:06:15.230Z,6.40
2019-05-03T05:08:41.096Z,5.92
2019-05-03T05:11:10.593Z,5.42
2019-05-03T05:13:37.443Z,6.55
2019-05-03T05:16:05.903Z,6.10
2019-05-03T05:18:38.038Z,6.95
2019-05-03T05:21:08.063Z,6.67
2019-05-03T05:23:35.409Z,5.80
2019-05-03T05:26:05.563Z,6.00
2019-05-03T05:28:47.840Z,5.90
2019-05-03T05:31:15.151Z,5.80
2019-05-03T05:33:44.624Z,5.80
2019-05-03T05:36:11.538Z,5.97
2019-05-03T05:38:38.227Z,5.65
2019-05-03T05:41:05.388Z,5.67
2019-05-03T05:43:33.267Z,4.95
2019-05-03T05:46:01.713Z,5.50
2019-05-03T05:48:39.193Z,4.78
2019-05-03T05:51:05.858Z,5.15
2019-05-03T05:53:32.499Z,4.83
2019-05-03T05:56:06.806Z,4.67
2019-05-03T05:58:36.403Z,4.90
2019-05-03T06:01:05.488Z,4.65
2019-05-03T06:03:34.338Z,4.65
2019-05-03T06:06:05.266Z,4.47
2019-05-03T06:08:40.863Z,4.95
2019-05-03T06:11:25.835Z,4.90
2019-05-03T06:13:54.667Z,4.47
2019-05-03T06:16:24.529Z,4.25
2019-05-03T06:18:54.655Z,4.90
2019-05-03T06:21:29.080Z,4.85
2019-05-03T06:23:57.565Z,4.20
2019-05-03T06:26:36.435Z,4.30
2019-05-03T06:29:06.448Z,4.03
2019-05-03T06:31:47.272Z,3.75
2019-05-03T06:34:14.972Z,3.92
2019-05-03T06:36:44.291Z,3.85
2019-05-03T06:39:11.096Z,3.92
2019-05-03T06:41:37.740Z,5.30
2019-05-03T06:44:04.441Z,4.80
2019-05-03T06:46:45.573Z,3.92
2019-05-03T06:49:15.136Z,4.50
2019-05-03T06:51:45.673Z,3.98
2019-05-03T06:54:12.153Z,4.40
2019-05-03T06:56:41.363Z,4.17
2019-05-03T06:59:09.060Z,4.45
2019-05-03T07:01:44.824Z,4.60
2019-05-03T07:04:16.216Z,3.85
2019-05-03T07:06:57.782Z,3.72
2019-05-03T07:09:26.261Z,3.77
2019-05-03T07:11:52.835Z,4.03
2019-05-03T07:14:19.469Z,3.40
2019-05-03T07:16:46.056Z,4.15
2019-05-03T07:19:14.741Z,3.85
2019-05-03T07:21:44.678Z,3.40
2019-05-03T07:24:14.690Z,3.90
2019-05-03T07:26:44.665Z,3.50
2019-05-03T07:29:12.087Z,3.12
2019-05-03T07:31:41.305Z,3.75
2019-05-03T07:34:11.334Z,3.77
2019-05-03T07:36:37.967Z,3.45
2019-05-03T07:39:06.789Z,4.05
2019-05-03T07:41:35.475Z,2.98
2019-05-03T07:44:01.962Z,3.45
2019-05-03T07:46:28.548Z,3.70
2019-05-03T07:48:55.163Z,3.42
2019-05-03T07:51:21.819Z,3.15
2019-05-03T07:54:04.520Z,3.05
2019-05-03T07:56:54.889Z,3.30
2019-05-03T07:59:27.839Z,3.27
2019-05-03T08:01:57.139Z,3.15
2019-05-03T08:04:25.515Z,3.50
2019-05-03T08:06:54.963Z,3.87
2019-05-03T08:09:22.111Z,3.83
2019-05-03T08:11:50.055Z,3.12
2019-05-03T08:14:32.648Z,3.62
2019-05-03T08:17:00.758Z,3.98
2019-05-03T08:19:27.525Z,3.85
2019-05-03T08:21:56.837Z,3.27
2019-05-03T08:24:25.178Z,3.80
2019-05-03T08:26:52.065Z,4.17
2019-05-03T08:29:19.908Z,4.00
2019-05-03T08:31:51.094Z,4.00
2019-05-03T08:34:25.849Z,4.20
2019-05-03T08:37:05.158Z,4.08
2019-05-03T08:39:32.485Z,4.83
2019-05-03T08:42:00.847Z,3.83
2019-05-03T08:44:27.471Z,4.15
2019-05-03T08:46:56.598Z,4.20
2019-05-03T08:49:25.344Z,3.83
2019-05-03T08:51:51.738Z,4.55
2019-05-03T08:54:18.371Z,4.37
2019-05-03T08:56:45.171Z,4.42
2019-05-03T08:59:11.842Z,4.30
2019-05-03T09:01:39.573Z,4.00
2019-05-03T09:04:06.215Z,4.53
2019-05-03T09:06:32.925Z,4.47
2019-05-03T09:08:59.540Z,4.62
2019-05-03T09:11:33.942Z,4.85
2019-05-03T09:13:56.521Z,4.90
2019-05-03T09:16:25.011Z,4.40
2019-05-03T09:18:51.649Z,3.58
2019-05-03T09:21:19.109Z,3.72
2019-05-03T09:23:45.741Z,3.50
2019-05-03T09:26:12.302Z,3.67
2019-05-03T09:28:40.297Z,3.50
2019-05-03T09:31:07.256Z,3.87
2019-05-03T09:33:35.657Z,3.47
2019-05-03T09:36:02.496Z,3.40
2019-05-03T09:38:35.025Z,2.70
2019-05-03T09:41:05.307Z,3.27
2019-05-03T09:43:31.963Z,2.83
2019-05-03T09:45:58.690Z,3.10
2019-05-03T09:48:25.654Z,2.50
2019-05-03T09:50:55.589Z,2.47
2019-05-03T09:53:25.632Z,2.50
2019-05-03T09:55:52.455Z,2.90
2019-05-03T09:58:19.331Z,2.80
2019-05-03T10:00:46.600Z,2.75
2019-05-03T10:03:13.533Z,2.65
2019-05-03T10:05:40.108Z,2.50
2019-05-03T10:08:06.828Z,3.30
2019-05-03T10:10:53.189Z,3.10
2019-05-03T10:13:23.358Z,2.95
2019-05-03T10:15:48.357Z,3.10
2019-05-03T10:18:15.863Z,3.83
2019-05-03T10:20:44.516Z,4.20
2019-05-03T10:23:14.796Z,4.33
2019-05-03T10:25:41.387Z,4.95
2019-05-03T10:28:08.830Z,5.55
2019-05-03T10:30:35.541Z,6.55
2019-05-03T10:33:05.995Z,6.78
2019-05-03T10:35:35.346Z,7.62
2019-05-03T10:38:02.207Z,7.42
2019-05-03T10:40:28.850Z,7.05
2019-05-03T10:42:55.549Z,7.35
2019-05-03T10:45:25.682Z,7.65
2019-05-03T10:47:50.883Z,7.62
2019-05-03T10:50:17.612Z,8.38
2019-05-03T10:53:05.021Z,7.75
2019-05-03T10:55:31.162Z,5.50
2019-05-03T10:58:11.589Z,5.12
2019-05-03T11:00:45.075Z,4.72
2019-05-03T11:03:08.829Z,4.53
2019-05-03T11:05:35.405Z,4.28
2019-05-03T11:08:04.916Z,3.33
2019-05-03T11:10:32.239Z,5.30
2019-05-03T11:12:58.859Z,4.80
2019-05-03T11:15:27.024Z,4.00
2019-05-03T11:17:54.874Z,3.70
2019-05-03T11:20:35.524Z,3.47
2019-05-03T11:23:06.905Z,4.63
2019-05-03T11:25:34.552Z,4.05
2019-05-03T11:28:04.767Z,3.80
2019-05-03T11:30:31.927Z,4.10
2019-05-03T11:33:04.036Z,3.98
2019-05-03T11:35:32.440Z,3.83
2019-05-03T11:38:00.921Z,3.77
2019-05-03T11:40:27.578Z,4.22
2019-05-03T11:42:56.061Z,4.15
2019-05-03T11:45:24.621Z,4.22
2019-05-03T11:47:51.301Z,3.85
2019-05-03T11:50:18.488Z,3.95
2019-05-03T11:52:47.202Z,3.85
2019-05-03T11:55:15.982Z,4.30
2019-05-03T11:57:42.263Z,4.12
2019-05-03T12:00:10.768Z,3.33
2019-05-03T12:02:40.630Z,3.67
2019-05-03T12:05:09.139Z,3.50
2019-05-03T12:07:39.334Z,3.10
2019-05-03T12:10:15.163Z,3.17
2019-05-03T12:12:38.429Z,3.15
2019-05-03T12:15:06.011Z,3.60
2019-05-03T12:17:51.870Z,3.00
2019-05-03T12:20:14.339Z,2.87
2019-05-03T12:22:41.468Z,3.08
2019-05-03T12:25:10.434Z,2.72
2019-05-03T12:27:38.989Z,3.17
2019-05-03T12:30:06.172Z,2.85
2019-05-03T12:32:34.545Z,2.62
2019-05-03T12:35:06.173Z,2.62
2019-05-03T12:37:35.369Z,2.90
2019-05-03T12:40:05.545Z,3.33
2019-05-03T12:42:35.517Z,3.00
2019-05-03T12:45:04.571Z,3.20
2019-05-03T12:47:31.512Z,3.15
2019-05-03T12:49:58.094Z,3.12
2019-05-03T12:52:26.762Z,3.22
2019-05-03T12:54:55.177Z,3.02
2019-05-03T12:57:21.991Z,3.67
2019-05-03T12:59:56.200Z,2.83
2019-05-03T13:02:33.373Z,3.40
2019-05-03T13:05:00.009Z,2.90
2019-05-03T13:07:37.290Z,2.60
2019-05-03T13:10:06.560Z,2.33
2019-05-03T13:12:34.730Z,2.70
2019-05-03T13:15:01.560Z,3.00
2019-05-03T13:17:36.542Z,4.00
2019-05-03T13:20:05.815Z,3.62
2019-05-03T13:22:35.074Z,3.60
2019-05-03T13:25:04.451Z,3.40
2019-05-03T13:27:31.045Z,3.72
2019-05-03T13:29:57.899Z,3.62
2019-05-03T13:32:24.589Z,3.02
2019-05-03T13:34:51.246Z,3.83
2019-05-03T13:37:17.828Z,3.52
2019-05-03T13:39:45.237Z,3.47
2019-05-03T13:42:12.019Z,3.85
2019-05-03T13:44:38.643Z,5.33
2019-05-03T13:47:05.262Z,5.45
2019-05-03T13:49:31.873Z,6.08
2019-05-03T13:51:58.543Z,6.15
2019-05-03T13:54:25.594Z,5.97
2019-05-03T13:56:52.405Z,5.40
2019-05-03T13:59:22.185Z,5.83
2019-05-03T14:01:49.427Z,6.53
2019-05-03T14:04:16.069Z,5.85
2019-05-03T14:06:44.545Z,5.50
2019-05-03T14:09:11.268Z,5.42
2019-05-03T14:11:38.666Z,5.78
2019-05-03T14:14:05.308Z,5.58
2019-05-03T14:16:31.919Z,5.90
2019-05-03T14:19:00.334Z,7.10
2019-05-03T14:21:31.286Z,11.48
2019-05-03T14:24:11.179Z,9.10
2019-05-03T14:26:39.272Z,9.25
2019-05-03T14:29:06.022Z,9.15
2019-05-03T14:31:34.504Z,10.68
2019-05-03T14:34:01.197Z,9.78
2019-05-03T14:36:28.797Z,7.10
2019-05-03T14:38:55.419Z,7.72
2019-05-03T14:41:22.041Z,8.48
2019-05-03T14:43:49.614Z,6.25
2019-05-03T14:46:29.330Z,8.25
2019-05-03T14:48:45.773Z,7.12
2019-05-03T14:51:14.703Z,6.95
2019-05-03T14:53:41.451Z,6.17
2019-05-03T14:56:09.892Z,7.95
2019-05-03T14:58:56.018Z,6.83
2019-05-03T15:01:41.299Z,7.40
2019-05-03T15:04:07.928Z,7.55
2019-05-03T15:06:35.756Z,8.13
2019-05-03T15:09:05.913Z,7.62
2019-05-03T15:11:34.438Z,7.97
2019-05-03T15:14:01.259Z,8.58
2019-05-03T15:16:27.881Z,7.62
2019-05-03T15:18:54.933Z,8.63
2019-05-03T15:21:21.677Z,9.03
2019-05-03T15:23:48.261Z,8.38
2019-05-03T15:26:14.921Z,8.90
2019-05-03T15:28:41.535Z,8.83
2019-05-03T15:31:08.170Z,9.70
2019-05-03T15:33:35.373Z,9.25
2019-05-03T15:36:02.170Z,10.10
2019-05-03T15:38:28.768Z,9.93
2019-05-03T15:40:56.348Z,9.83
2019-05-03T15:43:29.149Z,9.43
2019-05-03T15:46:14.733Z,9.65
2019-05-03T15:48:46.348Z,10.05
2019-05-03T15:51:15.008Z,11.93
2019-05-03T15:53:41.689Z,10.15
2019-05-03T15:56:10.109Z,10.03
2019-05-03T15:58:36.797Z,11.57
2019-05-03T16:01:04.673Z,9.63
2019-05-03T16:03:31.469Z,10.20
2019-05-03T16:05:58.110Z,10.45
2019-05-03T16:08:24.941Z,11.00
2019-05-03T16:10:52.231Z,12.40
2019-05-03T16:13:18.831Z,13.20
2019-05-03T16:15:45.445Z,12.30
2019-05-03T16:18:12.056Z,14.45
2019-05-03T16:20:39.408Z,16.37
2019-05-03T16:23:06.280Z,16.52
2019-05-03T16:25:32.867Z,15.48
2019-05-03T16:28:01.277Z,13.68
2019-05-03T16:30:30.682Z,12.43
2019-05-03T16:32:57.256Z,11.60
2019-05-03T16:35:25.554Z,11.97
2019-05-03T16:37:54.456Z,13.05
2019-05-03T16:40:21.173Z,12.98
2019-05-03T16:42:47.767Z,13.18
2019-05-03T16:45:17.025Z,11.40
2019-05-03T16:47:44.821Z,14.30
2019-05-03T16:50:14.316Z,15.13
2019-05-03T16:52:40.853Z,12.88
2019-05-03T16:55:07.442Z,13.75
2019-05-03T16:57:35.406Z,13.03
2019-05-03T17:00:06.821Z,14.07
2019-05-03T17:02:35.090Z,13.40
2019-05-03T17:05:14.676Z,9.23
2019-05-03T17:07:44.704Z,7.50
2019-05-03T17:10:15.342Z,7.47
2019-05-03T17:12:45.438Z,8.98
2019-05-03T17:15:14.414Z,9.08
2019-05-03T17:17:45.167Z,7.47
2019-05-03T17:20:14.445Z,8.40
2019-05-03T17:22:41.247Z,7.20
2019-05-03T17:25:07.890Z,8.18
2019-05-03T17:27:36.304Z,10.60
2019-05-03T17:30:07.962Z,12.37
2019-05-03T17:32:35.774Z,11.95
2019-05-03T17:35:06.289Z,10.98
2019-05-03T17:37:34.707Z,10.55
2019-05-03T17:40:11.152Z,10.68
2019-05-03T17:42:56.729Z,9.85
2019-05-03T17:45:25.451Z,9.50
2019-05-03T17:47:54.835Z,11.15
2019-05-03T17:52:54.589Z,10.68
2019-05-03T17:55:32.702Z,9.85
2019-05-03T17:58:04.500Z,12.53
2019-05-03T18:00:34.833Z,16.73
2019-05-03T18:03:02.482Z,14.73
2019-05-03T18:05:46.669Z,14.78
2019-05-03T18:08:35.390Z,16.42
2019-05-03T18:16:32.433Z,14.98
2019-05-03T18:18:59.028Z,13.50
2019-05-03T18:21:27.904Z,11.43
2019-05-03T18:23:54.724Z,11.60
2019-05-03T18:26:21.486Z,14.28
2019-05-03T18:28:48.255Z,16.48
2019-05-03T18:31:15.060Z,16.55
2019-05-03T18:33:44.304Z,21.87
2019-05-03T18:36:11.302Z,18.95
2019-05-03T18:38:38.856Z,20.57
2019-05-03T18:41:07.962Z,28.55
2019-05-03T18:43:55.684Z,20.55
2019-05-03T18:46:27.178Z,19.82
2019-05-03T18:48:55.173Z,19.45
2019-05-03T18:51:25.101Z,18.85
2019-05-03T18:53:51.854Z,18.20
2019-05-03T18:56:18.455Z,18.02
2019-05-03T18:58:45.082Z,17.32
2019-05-03T19:01:12.078Z,16.87
2019-05-03T19:03:45.099Z,16.17
2019-05-03T19:06:12.660Z,16.60
2019-05-03T19:08:54.324Z,18.05
2019-05-03T19:11:27.165Z,18.62
2019-05-03T19:14:02.028Z,21.17
2019-05-03T19:16:39.351Z,20.65
2019-05-03T19:19:07.428Z,20.32
2019-05-03T19:21:35.007Z,24.67
2019-05-03T19:24:02.282Z,18.30
2019-05-03T19:26:29.989Z,18.15
2019-05-03T19:28:56.698Z,17.12
2019-05-03T19:31:27.748Z,19.70
2019-05-03T19:33:55.050Z,23.42
2019-05-03T19:36:21.981Z,24.15
2019-05-03T19:38:48.669Z,23.30
2019-05-03T19:41:16.294Z,25.60
2019-05-03T19:43:44.903Z,25.45
2019-05-03T19:46:12.099Z,37.50
2019-05-03T19:48:39.741Z,31.48
2019-05-03T19:51:06.492Z,25.97
2019-05-03T19:53:45.653Z,26.12
2019-05-03T19:56:14.813Z,26.15
2019-05-03T19:58:44.202Z,24.57
2019-05-03T20:01:30.500Z,33.30
2019-05-03T20:04:02.251Z,33.53
2019-05-03T20:06:31.604Z,26.77
2019-05-03T20:09:00.178Z,23.20
2019-05-03T20:11:27.655Z,22.30
2019-05-03T20:13:55.683Z,23.35
2019-05-03T20:16:22.490Z,22.65
2019-05-03T20:18:50.774Z,22.85
2019-05-03T20:21:17.532Z,23.83
2019-05-03T20:23:52.243Z,22.62
2019-05-03T20:26:21.587Z,21.15
2019-05-03T20:28:59.261Z,19.52
2019-05-03T20:34:29.615Z,18.70
2019-05-03T20:36:56.767Z,18.20
2019-05-03T20:39:25.411Z,18.15
2019-05-03T20:41:52.664Z,19.00
2019-05-03T20:44:21.427Z,17.30
2019-05-03T20:46:59.486Z,13.95
2019-05-03T20:49:31.263Z,12.50
2019-05-03T20:51:57.888Z,10.43
2019-05-03T20:54:24.950Z,10.10
2019-05-03T20:56:51.723Z,10.23
2019-05-03T20:59:18.554Z,9.93
2019-05-03T21:01:49.512Z,9.30
2019-05-03T21:04:16.660Z,9.95
2019-05-03T21:06:45.524Z,8.78
2019-05-03T21:09:14.809Z,9.83
2019-05-03T21:11:44.998Z,9.80
2019-05-03T21:14:17.705Z,9.53
2019-05-03T21:16:58.175Z,9.40
2019-05-03T21:19:44.671Z,9.45
2019-05-03T21:22:14.404Z,9.65
2019-05-03T21:24:45.443Z,10.32
2019-05-03T21:27:12.276Z,11.28
2019-05-03T21:29:51.876Z,12.00
2019-05-03T21:32:21.228Z,12.45
2019-05-03T21:34:48.008Z,12.47
2019-05-03T21:37:18.022Z,11.55
2019-05-03T21:39:45.444Z,12.05
2019-05-03T21:42:15.109Z,11.43
2019-05-03T21:44:42.043Z,11.75
2019-05-03T21:47:10.592Z,13.58
2019-05-03T21:49:45.158Z,15.05
2019-05-03T21:52:14.692Z,16.57
2019-05-03T21:54:45.093Z,17.23
2019-05-03T21:57:11.868Z,16.87
2019-05-03T21:59:41.534Z,15.32
2019-05-03T22:02:11.731Z,17.52
2019-05-03T22:04:44.454Z,15.75
2019-05-03T22:07:11.422Z,21.35
2019-05-03T22:09:38.205Z,18.35
2019-05-03T22:12:09.883Z,17.52
2019-05-03T22:14:38.754Z,19.62
2019-05-03T22:17:25.311Z,19.55
2019-05-03T22:19:54.949Z,17.10
2019-05-03T22:22:39.110Z,18.35
2019-05-03T22:25:08.010Z,17.17
2019-05-03T22:27:40.597Z,18.82
2019-05-03T22:30:09.569Z,18.67
2019-05-03T22:32:39.353Z,18.17
2019-05-03T22:35:20.038Z,19.12
2019-05-03T22:37:50.565Z,18.50
2019-05-03T22:40:20.738Z,18.57
2019-05-03T22:42:47.722Z,19.07
2019-05-03T22:45:16.567Z,16.42
2019-05-03T22:47:44.596Z,16.23
2019-05-03T22:50:11.641Z,16.27
2019-05-03T22:52:38.417Z,15.63
2019-05-03T22:55:06.602Z,15.38
2019-05-03T22:57:34.967Z,14.83
2019-05-03T23:00:06.020Z,13.75
2019-05-03T23:02:35.073Z,14.47
2019-05-03T23:05:02.348Z,14.07
2019-05-03T23:07:31.033Z,12.30
2019-05-03T23:09:58.785Z,13.15
2019-05-03T23:12:28.980Z,13.25
2019-05-03T23:14:57.988Z,10.70
2019-05-03T23:17:25.351Z,10.93
2019-05-03T23:19:57.435Z,11.65
2019-05-03T23:22:31.797Z,11.25
2019-05-03T23:24:59.753Z,10.55
2019-05-03T23:27:28.394Z,10.78
2019-05-03T23:29:58.429Z,11.50
2019-05-03T23:32:25.338Z,12.55
2019-05-03T23:34:54.277Z,12.15
2019-05-03T23:37:21.153Z,12.75
2019-05-03T23:39:48.178Z,12.50
2019-05-03T23:42:15.559Z,12.93
2019-05-03T23:44:42.612Z,13.18
2019-05-03T23:47:14.758Z,13.28
2019-05-03T23:49:41.587Z,13.32
2019-05-03T23:52:25.771Z,12.82
2019-05-03T23:54:54.836Z,13.58
2019-05-03T23:57:25.733Z,13.18
2019-05-03T23:59:54.483Z,15.38
